sensor_id;sensor_type;location;lat;lon;timestamp;P1;durP1;ratioP1;P2;durP2;ratioP2
9108;SDS011;4590;51.462;6.692;2023-01-09T00:01:50;1.57;;;1.03;;
9108;SDS011;4590;51.462;6.692;2023-01-09T00:04:16;2.05;;;1.30;;
9108;SDS011;4590;51.462;6.692;2023-01-09T00:06:42;4.40;;;1.50;;
9108;SDS011;4590;51.462;6.692;2023-01-09T00:09:09;1.48;;;1.05;;
9108;SDS011;4590;51.462;6.692;2023-01-09T00:11:35;2.00;;;1.43;;
9108;SDS011;4590;51.462;6.692;2023-01-09T00:14:00;1.92;;;0.95;;
9108;SDS011;4590;51.462;6.692;2023-01-09T00:16:26;2.47;;;1.20;;
9108;SDS011;4590;51.462;6.692;2023-01-09T00:18:51;2.50;;;1.27;;
9108;SDS011;4590;51.462;6.692;2023-01-09T00:21:17;3.07;;;1.37;;
9108;SDS011;4590;51.462;6.692;2023-01-09T00:23:43;2.67;;;1.05;;
9108;SDS011;4590;51.462;6.692;2023-01-09T00:26:13;2.00;;;1.10;;
9108;SDS011;4590;51.462;6.692;2023-01-09T00:28:44;3.25;;;1.00;;
9108;SDS011;4590;51.462;6.692;2023-01-09T00:31:10;3.60;;;1.08;;
9108;SDS011;4590;51.462;6.692;2023-01-09T00:33:37;1.43;;;0.80;;
9108;SDS011;4590;51.462;6.692;2023-01-09T00:36:06;1.88;;;0.88;;
9108;SDS011;4590;51.462;6.692;2023-01-09T00:38:32;3.30;;;0.85;;
9108;SDS011;4590;51.462;6.692;2023-01-09T00:40:57;1.80;;;0.80;;
9108;SDS011;4590;51.462;6.692;2023-01-09T00:43:26;1.13;;;0.50;;
9108;SDS011;4590;51.462;6.692;2023-01-09T00:45:54;1.35;;;0.55;;
9108;SDS011;4590;51.462;6.692;2023-01-09T00:48:20;1.10;;;0.40;;
9108;SDS011;4590;51.462;6.692;2023-01-09T00:50:53;0.93;;;0.60;;
9108;SDS011;4590;51.462;6.692;2023-01-09T00:53:22;1.33;;;0.40;;
9108;SDS011;4590;51.462;6.692;2023-01-09T00:55:51;0.82;;;0.35;;
9108;SDS011;4590;51.462;6.692;2023-01-09T01:00:43;1.10;;;0.40;;
9108;SDS011;4590;51.462;6.692;2023-01-09T01:03:08;1.47;;;0.40;;
9108;SDS011;4590;51.462;6.692;2023-01-09T01:05:34;1.07;;;0.57;;
9108;SDS011;4590;51.462;6.692;2023-01-09T01:08:18;0.60;;;0.40;;
9108;SDS011;4590;51.462;6.692;2023-01-09T01:10:44;0.50;;;0.30;;
9108;SDS011;4590;51.462;6.692;2023-01-09T01:13:12;1.55;;;0.60;;
9108;SDS011;4590;51.462;6.692;2023-01-09T01:15:38;1.00;;;0.40;;
9108;SDS011;4590;51.462;6.692;2023-01-09T01:18:04;0.52;;;0.30;;
9108;SDS011;4590;51.462;6.692;2023-01-09T01:20:30;1.13;;;0.45;;
9108;SDS011;4590;51.462;6.692;2023-01-09T01:22:55;1.00;;;0.50;;
9108;SDS011;4590;51.462;6.692;2023-01-09T01:25:21;1.30;;;0.50;;
9108;SDS011;4590;51.462;6.692;2023-01-09T01:27:46;0.93;;;0.40;;
9108;SDS011;4590;51.462;6.692;2023-01-09T01:30:12;1.03;;;0.40;;
9108;SDS011;4590;51.462;6.692;2023-01-09T01:32:39;1.10;;;0.57;;
9108;SDS011;4590;51.462;6.692;2023-01-09T01:35:05;0.82;;;0.43;;
9108;SDS011;4590;51.462;6.692;2023-01-09T01:37:32;1.95;;;0.60;;
9108;SDS011;4590;51.462;6.692;2023-01-09T01:42:23;1.48;;;0.40;;
9108;SDS011;4590;51.462;6.692;2023-01-09T01:47:26;0.90;;;0.57;;
9108;SDS011;4590;51.462;6.692;2023-01-09T01:49:55;0.60;;;0.35;;
9108;SDS011;4590;51.462;6.692;2023-01-09T01:52:20;1.85;;;0.70;;
9108;SDS011;4590;51.462;6.692;2023-01-09T01:54:47;0.85;;;0.40;;
9108;SDS011;4590;51.462;6.692;2023-01-09T01:57:13;0.80;;;0.50;;
9108;SDS011;4590;51.462;6.692;2023-01-09T01:59:45;1.60;;;0.40;;
9108;SDS011;4590;51.462;6.692;2023-01-09T02:02:18;1.00;;;0.50;;
9108;SDS011;4590;51.462;6.692;2023-01-09T02:04:47;0.82;;;0.40;;
9108;SDS011;4590;51.462;6.692;2023-01-09T02:07:15;0.93;;;0.47;;
9108;SDS011;4590;51.462;6.692;2023-01-09T02:09:40;1.07;;;0.50;;
9108;SDS011;4590;51.462;6.692;2023-01-09T02:12:21;1.13;;;0.50;;
9108;SDS011;4590;51.462;6.692;2023-01-09T02:14:50;0.70;;;0.40;;
9108;SDS011;4590;51.462;6.692;2023-01-09T02:17:29;1.10;;;0.50;;
9108;SDS011;4590;51.462;6.692;2023-01-09T02:22:46;0.85;;;0.50;;
9108;SDS011;4590;51.462;6.692;2023-01-09T02:28:17;2.50;;;0.63;;
9108;SDS011;4590;51.462;6.692;2023-01-09T02:39:25;1.27;;;0.70;;
9108;SDS011;4590;51.462;6.692;2023-01-09T02:41:59;2.40;;;0.60;;
9108;SDS011;4590;51.462;6.692;2023-01-09T02:44:30;1.30;;;0.60;;
9108;SDS011;4590;51.462;6.692;2023-01-09T02:49:35;0.95;;;0.50;;
9108;SDS011;4590;51.462;6.692;2023-01-09T02:54:44;1.80;;;0.70;;
9108;SDS011;4590;51.462;6.692;2023-01-09T03:00:03;1.33;;;0.60;;
9108;SDS011;4590;51.462;6.692;2023-01-09T03:02:52;2.33;;;1.15;;
9108;SDS011;4590;51.462;6.692;2023-01-09T03:05:29;2.78;;;0.90;;
9108;SDS011;4590;51.462;6.692;2023-01-09T03:11:02;2.50;;;0.90;;
9108;SDS011;4590;51.462;6.692;2023-01-09T03:13:52;1.88;;;0.95;;
9108;SDS011;4590;51.462;6.692;2023-01-09T03:16:19;4.60;;;1.10;;
9108;SDS011;4590;51.462;6.692;2023-01-09T03:18:48;2.80;;;0.98;;
9108;SDS011;4590;51.462;6.692;2023-01-09T03:21:15;2.05;;;0.70;;
9108;SDS011;4590;51.462;6.692;2023-01-09T03:26:21;1.95;;;1.17;;
9108;SDS011;4590;51.462;6.692;2023-01-09T03:28:47;2.80;;;1.00;;
9108;SDS011;4590;51.462;6.692;2023-01-09T03:31:13;2.40;;;1.10;;
9108;SDS011;4590;51.462;6.692;2023-01-09T03:33:38;2.10;;;0.83;;
9108;SDS011;4590;51.462;6.692;2023-01-09T03:36:04;2.65;;;0.90;;
9108;SDS011;4590;51.462;6.692;2023-01-09T03:38:30;1.33;;;0.70;;
9108;SDS011;4590;51.462;6.692;2023-01-09T03:40:55;2.53;;;0.90;;
9108;SDS011;4590;51.462;6.692;2023-01-09T03:43:21;2.70;;;1.03;;
9108;SDS011;4590;51.462;6.692;2023-01-09T03:45:46;2.83;;;1.00;;
9108;SDS011;4590;51.462;6.692;2023-01-09T03:48:11;2.47;;;1.23;;
9108;SDS011;4590;51.462;6.692;2023-01-09T03:50:36;3.17;;;0.90;;
9108;SDS011;4590;51.462;6.692;2023-01-09T03:53:02;1.30;;;0.90;;
9108;SDS011;4590;51.462;6.692;2023-01-09T03:55:28;2.30;;;1.10;;
9108;SDS011;4590;51.462;6.692;2023-01-09T03:57:53;3.33;;;1.50;;
9108;SDS011;4590;51.462;6.692;2023-01-09T04:00:19;2.33;;;1.10;;
9108;SDS011;4590;51.462;6.692;2023-01-09T04:02:44;1.77;;;1.05;;
9108;SDS011;4590;51.462;6.692;2023-01-09T04:05:10;1.37;;;0.80;;
9108;SDS011;4590;51.462;6.692;2023-01-09T04:07:35;7.07;;;1.20;;
9108;SDS011;4590;51.462;6.692;2023-01-09T04:10:01;2.47;;;1.00;;
9108;SDS011;4590;51.462;6.692;2023-01-09T04:12:26;2.90;;;1.23;;
9108;SDS011;4590;51.462;6.692;2023-01-09T04:14:52;2.73;;;1.10;;
9108;SDS011;4590;51.462;6.692;2023-01-09T04:17:17;5.60;;;1.20;;
9108;SDS011;4590;51.462;6.692;2023-01-09T04:19:42;3.80;;;1.50;;
9108;SDS011;4590;51.462;6.692;2023-01-09T04:22:07;3.93;;;1.53;;
9108;SDS011;4590;51.462;6.692;2023-01-09T04:24:33;3.03;;;1.10;;
9108;SDS011;4590;51.462;6.692;2023-01-09T04:26:58;2.97;;;1.20;;
9108;SDS011;4590;51.462;6.692;2023-01-09T04:29:24;3.35;;;1.30;;
9108;SDS011;4590;51.462;6.692;2023-01-09T04:31:49;4.33;;;1.10;;
9108;SDS011;4590;51.462;6.692;2023-01-09T04:34:15;2.80;;;0.87;;
9108;SDS011;4590;51.462;6.692;2023-01-09T04:36:40;3.47;;;1.00;;
9108;SDS011;4590;51.462;6.692;2023-01-09T04:41:32;4.25;;;1.10;;
9108;SDS011;4590;51.462;6.692;2023-01-09T04:44:16;3.67;;;1.05;;
9108;SDS011;4590;51.462;6.692;2023-01-09T04:46:43;2.88;;;1.00;;
9108;SDS011;4590;51.462;6.692;2023-01-09T04:49:09;2.78;;;1.27;;
9108;SDS011;4590;51.462;6.692;2023-01-09T04:51:34;5.60;;;1.20;;
9108;SDS011;4590;51.462;6.692;2023-01-09T04:53:59;1.83;;;0.90;;
9108;SDS011;4590;51.462;6.692;2023-01-09T04:56:25;3.17;;;0.90;;
9108;SDS011;4590;51.462;6.692;2023-01-09T04:58:50;4.60;;;1.20;;
9108;SDS011;4590;51.462;6.692;2023-01-09T05:01:16;3.63;;;1.07;;
9108;SDS011;4590;51.462;6.692;2023-01-09T05:03:41;6.57;;;1.23;;
9108;SDS011;4590;51.462;6.692;2023-01-09T05:06:06;5.20;;;1.10;;
9108;SDS011;4590;51.462;6.692;2023-01-09T05:08:31;1.90;;;1.10;;
9108;SDS011;4590;51.462;6.692;2023-01-09T05:10:57;4.57;;;1.00;;
9108;SDS011;4590;51.462;6.692;2023-01-09T05:13:22;4.00;;;1.20;;
9108;SDS011;4590;51.462;6.692;2023-01-09T05:15:47;3.70;;;1.23;;
9108;SDS011;4590;51.462;6.692;2023-01-09T05:18:13;5.30;;;1.17;;
9108;SDS011;4590;51.462;6.692;2023-01-09T05:20:38;5.90;;;1.10;;
9108;SDS011;4590;51.462;6.692;2023-01-09T05:23:03;5.80;;;1.10;;
9108;SDS011;4590;51.462;6.692;2023-01-09T05:25:29;3.90;;;0.97;;
9108;SDS011;4590;51.462;6.692;2023-01-09T05:27:54;2.90;;;0.93;;
9108;SDS011;4590;51.462;6.692;2023-01-09T05:30:19;3.37;;;1.10;;
9108;SDS011;4590;51.462;6.692;2023-01-09T05:32:44;2.20;;;0.90;;
9108;SDS011;4590;51.462;6.692;2023-01-09T05:35:10;2.33;;;0.93;;
9108;SDS011;4590;51.462;6.692;2023-01-09T05:37:35;2.90;;;0.80;;
9108;SDS011;4590;51.462;6.692;2023-01-09T05:40:00;5.17;;;1.03;;
9108;SDS011;4590;51.462;6.692;2023-01-09T05:42:26;4.60;;;0.97;;
9108;SDS011;4590;51.462;6.692;2023-01-09T05:44:51;2.43;;;0.80;;
9108;SDS011;4590;51.462;6.692;2023-01-09T05:47:16;2.73;;;0.63;;
9108;SDS011;4590;51.462;6.692;2023-01-09T05:49:42;4.13;;;1.17;;
9108;SDS011;4590;51.462;6.692;2023-01-09T05:52:07;4.07;;;0.80;;
9108;SDS011;4590;51.462;6.692;2023-01-09T05:54:32;2.67;;;0.70;;
9108;SDS011;4590;51.462;6.692;2023-01-09T05:56:58;5.23;;;1.00;;
9108;SDS011;4590;51.462;6.692;2023-01-09T05:59:23;8.70;;;1.60;;
9108;SDS011;4590;51.462;6.692;2023-01-09T06:01:48;2.77;;;1.20;;
9108;SDS011;4590;51.462;6.692;2023-01-09T06:04:13;3.73;;;0.77;;
9108;SDS011;4590;51.462;6.692;2023-01-09T06:06:39;5.80;;;1.60;;
9108;SDS011;4590;51.462;6.692;2023-01-09T06:09:05;7.75;;;1.30;;
9108;SDS011;4590;51.462;6.692;2023-01-09T06:11:30;2.78;;;0.70;;
9108;SDS011;4590;51.462;6.692;2023-01-09T06:13:58;4.68;;;0.90;;
9108;SDS011;4590;51.462;6.692;2023-01-09T06:16:23;2.70;;;0.80;;
9108;SDS011;4590;51.462;6.692;2023-01-09T06:18:48;5.83;;;1.10;;
9108;SDS011;4590;51.462;6.692;2023-01-09T06:21:14;11.50;;;1.23;;
9108;SDS011;4590;51.462;6.692;2023-01-09T06:23:39;4.20;;;0.97;;
9108;SDS011;4590;51.462;6.692;2023-01-09T06:26:05;5.33;;;1.23;;
9108;SDS011;4590;51.462;6.692;2023-01-09T06:28:30;4.47;;;0.80;;
9108;SDS011;4590;51.462;6.692;2023-01-09T06:30:55;5.17;;;1.27;;
9108;SDS011;4590;51.462;6.692;2023-01-09T06:33:21;3.97;;;1.20;;
9108;SDS011;4590;51.462;6.692;2023-01-09T06:35:46;5.80;;;1.20;;
9108;SDS011;4590;51.462;6.692;2023-01-09T06:38:11;2.43;;;1.07;;
9108;SDS011;4590;51.462;6.692;2023-01-09T06:40:37;9.40;;;1.17;;
9108;SDS011;4590;51.462;6.692;2023-01-09T06:43:02;8.20;;;1.10;;
9108;SDS011;4590;51.462;6.692;2023-01-09T06:45:27;6.53;;;1.00;;
9108;SDS011;4590;51.462;6.692;2023-01-09T06:47:53;4.60;;;1.20;;
9108;SDS011;4590;51.462;6.692;2023-01-09T06:50:18;4.43;;;0.97;;
9108;SDS011;4590;51.462;6.692;2023-01-09T06:52:44;3.33;;;0.87;;
9108;SDS011;4590;51.462;6.692;2023-01-09T06:55:09;3.87;;;1.00;;
9108;SDS011;4590;51.462;6.692;2023-01-09T06:57:34;6.43;;;1.20;;
9108;SDS011;4590;51.462;6.692;2023-01-09T06:59:59;3.33;;;1.00;;
9108;SDS011;4590;51.462;6.692;2023-01-09T07:02:25;4.30;;;0.90;;
9108;SDS011;4590;51.462;6.692;2023-01-09T07:04:50;5.60;;;1.43;;
9108;SDS011;4590;51.462;6.692;2023-01-09T07:07:15;4.17;;;0.90;;
9108;SDS011;4590;51.462;6.692;2023-01-09T07:12:07;5.83;;;1.17;;
9108;SDS011;4590;51.462;6.692;2023-01-09T07:14:32;5.10;;;1.37;;
9108;SDS011;4590;51.462;6.692;2023-01-09T07:16:58;5.43;;;1.20;;
9108;SDS011;4590;51.462;6.692;2023-01-09T07:19:23;4.23;;;1.00;;
9108;SDS011;4590;51.462;6.692;2023-01-09T07:21:48;2.63;;;0.70;;
9108;SDS011;4590;51.462;6.692;2023-01-09T07:24:13;4.90;;;1.13;;
9108;SDS011;4590;51.462;6.692;2023-01-09T07:26:39;4.03;;;1.10;;
9108;SDS011;4590;51.462;6.692;2023-01-09T07:29:04;4.83;;;1.40;;
9108;SDS011;4590;51.462;6.692;2023-01-09T07:31:29;2.97;;;0.93;;
9108;SDS011;4590;51.462;6.692;2023-01-09T07:33:55;8.20;;;1.30;;
9108;SDS011;4590;51.462;6.692;2023-01-09T07:36:20;6.93;;;1.00;;
9108;SDS011;4590;51.462;6.692;2023-01-09T07:38:45;3.50;;;1.00;;
9108;SDS011;4590;51.462;6.692;2023-01-09T07:41:10;4.63;;;1.07;;
9108;SDS011;4590;51.462;6.692;2023-01-09T07:43:36;7.30;;;1.20;;
9108;SDS011;4590;51.462;6.692;2023-01-09T07:46:03;6.78;;;1.25;;
9108;SDS011;4590;51.462;6.692;2023-01-09T07:48:28;4.53;;;1.17;;
9108;SDS011;4590;51.462;6.692;2023-01-09T07:50:53;5.97;;;0.93;;
9108;SDS011;4590;51.462;6.692;2023-01-09T07:53:19;6.03;;;1.00;;
9108;SDS011;4590;51.462;6.692;2023-01-09T07:55:44;3.60;;;0.90;;
9108;SDS011;4590;51.462;6.692;2023-01-09T07:58:09;2.90;;;1.10;;
9108;SDS011;4590;51.462;6.692;2023-01-09T08:00:35;3.87;;;1.27;;
9108;SDS011;4590;51.462;6.692;2023-01-09T08:03:00;6.33;;;2.30;;
9108;SDS011;4590;51.462;6.692;2023-01-09T08:05:25;6.27;;;1.40;;
9108;SDS011;4590;51.462;6.692;2023-01-09T08:07:50;4.13;;;1.33;;
9108;SDS011;4590;51.462;6.692;2023-01-09T08:10:16;14.17;;;6.30;;
9108;SDS011;4590;51.462;6.692;2023-01-09T08:12:46;7.53;;;3.38;;
9108;SDS011;4590;51.462;6.692;2023-01-09T08:15:11;12.63;;;4.55;;
9108;SDS011;4590;51.462;6.692;2023-01-09T08:17:41;8.32;;;2.65;;
9108;SDS011;4590;51.462;6.692;2023-01-09T08:20:09;7.93;;;2.70;;
9108;SDS011;4590;51.462;6.692;2023-01-09T08:22:35;8.10;;;2.30;;
9108;SDS011;4590;51.462;6.692;2023-01-09T08:25:01;4.73;;;1.37;;
9108;SDS011;4590;51.462;6.692;2023-01-09T08:27:26;3.83;;;1.57;;
9108;SDS011;4590;51.462;6.692;2023-01-09T08:29:51;4.67;;;1.37;;
9108;SDS011;4590;51.462;6.692;2023-01-09T08:32:17;5.03;;;1.40;;
9108;SDS011;4590;51.462;6.692;2023-01-09T08:34:42;5.77;;;1.23;;
9108;SDS011;4590;51.462;6.692;2023-01-09T08:37:07;4.00;;;1.00;;
9108;SDS011;4590;51.462;6.692;2023-01-09T08:39:32;6.47;;;1.00;;
9108;SDS011;4590;51.462;6.692;2023-01-09T08:41:59;5.97;;;2.00;;
9108;SDS011;4590;51.462;6.692;2023-01-09T08:44:43;5.78;;;1.83;;
9108;SDS011;4590;51.462;6.692;2023-01-09T08:47:28;6.55;;;1.45;;
9108;SDS011;4590;51.462;6.692;2023-01-09T08:49:57;6.30;;;1.27;;
9108;SDS011;4590;51.462;6.692;2023-01-09T08:52:22;3.23;;;1.00;;
9108;SDS011;4590;51.462;6.692;2023-01-09T08:54:48;4.37;;;1.10;;
9108;SDS011;4590;51.462;6.692;2023-01-09T08:57:13;3.60;;;0.77;;
9108;SDS011;4590;51.462;6.692;2023-01-09T08:59:38;8.03;;;1.30;;
9108;SDS011;4590;51.462;6.692;2023-01-09T09:02:03;5.87;;;1.30;;
9108;SDS011;4590;51.462;6.692;2023-01-09T09:04:29;5.77;;;1.30;;
9108;SDS011;4590;51.462;6.692;2023-01-09T09:06:54;3.87;;;1.27;;
9108;SDS011;4590;51.462;6.692;2023-01-09T09:09:19;4.97;;;0.87;;
9108;SDS011;4590;51.462;6.692;2023-01-09T09:11:44;4.90;;;1.17;;
9108;SDS011;4590;51.462;6.692;2023-01-09T09:14:10;4.37;;;0.90;;
9108;SDS011;4590;51.462;6.692;2023-01-09T09:16:54;4.88;;;1.30;;
9108;SDS011;4590;51.462;6.692;2023-01-09T09:19:19;4.80;;;1.20;;
9108;SDS011;4590;51.462;6.692;2023-01-09T09:21:44;5.43;;;1.00;;
9108;SDS011;4590;51.462;6.692;2023-01-09T09:24:10;5.67;;;1.20;;
9108;SDS011;4590;51.462;6.692;2023-01-09T09:26:35;4.47;;;1.10;;
9108;SDS011;4590;51.462;6.692;2023-01-09T09:29:00;6.47;;;1.40;;
9108;SDS011;4590;51.462;6.692;2023-01-09T09:31:25;2.80;;;0.80;;
9108;SDS011;4590;51.462;6.692;2023-01-09T09:33:51;4.73;;;1.00;;
9108;SDS011;4590;51.462;6.692;2023-01-09T09:36:16;7.13;;;0.93;;
9108;SDS011;4590;51.462;6.692;2023-01-09T09:38:41;4.00;;;1.07;;
9108;SDS011;4590;51.462;6.692;2023-01-09T09:41:10;2.67;;;0.93;;
9108;SDS011;4590;51.462;6.692;2023-01-09T09:55:32;4.38;;;1.05;;
9108;SDS011;4590;51.462;6.692;2023-01-09T09:58:03;5.85;;;1.25;;
9108;SDS011;4590;51.462;6.692;2023-01-09T10:00:37;5.07;;;0.95;;
9108;SDS011;4590;51.462;6.692;2023-01-09T10:03:04;5.00;;;0.90;;
9108;SDS011;4590;51.462;6.692;2023-01-09T10:05:35;4.60;;;1.13;;
9108;SDS011;4590;51.462;6.692;2023-01-09T10:08:04;4.45;;;1.13;;
9108;SDS011;4590;51.462;6.692;2023-01-09T10:10:36;3.70;;;0.98;;
9108;SDS011;4590;51.462;6.692;2023-01-09T10:13:11;3.85;;;1.10;;
9108;SDS011;4590;51.462;6.692;2023-01-09T10:16:14;4.97;;;1.10;;
9108;SDS011;4590;51.462;6.692;2023-01-09T10:19:00;5.93;;;1.30;;
9108;SDS011;4590;51.462;6.692;2023-01-09T10:24:51;7.97;;;1.02;;
9108;SDS011;4590;51.462;6.692;2023-01-09T10:27:43;5.22;;;1.10;;
9108;SDS011;4590;51.462;6.692;2023-01-09T10:33:08;5.47;;;1.02;;
9108;SDS011;4590;51.462;6.692;2023-01-09T10:38:42;7.35;;;1.20;;
9108;SDS011;4590;51.462;6.692;2023-01-09T10:41:12;5.25;;;1.10;;
9108;SDS011;4590;51.462;6.692;2023-01-09T10:43:46;4.88;;;1.10;;
9108;SDS011;4590;51.462;6.692;2023-01-09T10:46:17;3.38;;;0.90;;
9108;SDS011;4590;51.462;6.692;2023-01-09T10:48:49;6.55;;;1.20;;
9108;SDS011;4590;51.462;6.692;2023-01-09T10:51:21;3.22;;;0.85;;
9108;SDS011;4590;51.462;6.692;2023-01-09T10:53:51;3.75;;;0.98;;
9108;SDS011;4590;51.462;6.692;2023-01-09T10:56:22;4.28;;;0.95;;
9108;SDS011;4590;51.462;6.692;2023-01-09T10:58:50;3.50;;;1.02;;
9108;SDS011;4590;51.462;6.692;2023-01-09T11:01:18;2.72;;;1.00;;
9108;SDS011;4590;51.462;6.692;2023-01-09T11:03:49;2.40;;;0.85;;
9108;SDS011;4590;51.462;6.692;2023-01-09T11:06:19;3.13;;;0.77;;
9108;SDS011;4590;51.462;6.692;2023-01-09T11:08:49;3.40;;;1.08;;
9108;SDS011;4590;51.462;6.692;2023-01-09T11:11:35;4.40;;;1.05;;
9108;SDS011;4590;51.462;6.692;2023-01-09T11:14:04;6.90;;;1.67;;
9108;SDS011;4590;51.462;6.692;2023-01-09T11:16:36;4.10;;;1.17;;
9108;SDS011;4590;51.462;6.692;2023-01-09T11:19:02;2.93;;;0.90;;
9108;SDS011;4590;51.462;6.692;2023-01-09T11:21:34;4.40;;;0.90;;
9108;SDS011;4590;51.462;6.692;2023-01-09T11:27:30;4.43;;;0.93;;
9108;SDS011;4590;51.462;6.692;2023-01-09T11:29:36;5.85;;;1.63;;
9108;SDS011;4590;51.462;6.692;2023-01-09T11:32:01;4.27;;;1.60;;
9108;SDS011;4590;51.462;6.692;2023-01-09T11:34:30;4.97;;;1.50;;
9108;SDS011;4590;51.462;6.692;2023-01-09T11:37:05;16.98;;;9.77;;
9108;SDS011;4590;51.462;6.692;2023-01-09T11:39:34;8.73;;;5.95;;
9108;SDS011;4590;51.462;6.692;2023-01-09T11:42:05;7.03;;;3.20;;
9108;SDS011;4590;51.462;6.692;2023-01-09T11:45:05;7.07;;;2.60;;
9108;SDS011;4590;51.462;6.692;2023-01-09T11:47:38;4.07;;;2.22;;
9108;SDS011;4590;51.462;6.692;2023-01-09T11:53:32;6.07;;;1.48;;
9108;SDS011;4590;51.462;6.692;2023-01-09T11:55:40;2.55;;;1.10;;
9108;SDS011;4590;51.462;6.692;2023-01-09T11:58:11;3.42;;;1.60;;
9108;SDS011;4590;51.462;6.692;2023-01-09T12:00:49;4.15;;;1.50;;
9108;SDS011;4590;51.462;6.692;2023-01-09T12:03:39;4.68;;;1.73;;
9108;SDS011;4590;51.462;6.692;2023-01-09T12:07:18;2.85;;;1.15;;
9108;SDS011;4590;51.462;6.692;2023-01-09T12:09:27;17.73;;;9.35;;
9108;SDS011;4590;51.462;6.692;2023-01-09T12:15:16;6.32;;;3.40;;
9108;SDS011;4590;51.462;6.692;2023-01-09T12:17:48;4.80;;;2.20;;
9108;SDS011;4590;51.462;6.692;2023-01-09T12:25:49;4.60;;;2.50;;
9108;SDS011;4590;51.462;6.692;2023-01-09T12:31:00;3.72;;;1.77;;
9108;SDS011;4590;51.462;6.692;2023-01-09T12:36:31;6.10;;;2.92;;
9108;SDS011;4590;51.462;6.692;2023-01-09T12:41:54;5.70;;;2.90;;
9108;SDS011;4590;51.462;6.692;2023-01-09T12:44:54;10.05;;;4.78;;
9108;SDS011;4590;51.462;6.692;2023-01-09T12:53:08;6.50;;;2.40;;
9108;SDS011;4590;51.462;6.692;2023-01-09T12:55:39;5.25;;;3.22;;
9108;SDS011;4590;51.462;6.692;2023-01-09T12:58:13;7.10;;;4.97;;
9108;SDS011;4590;51.462;6.692;2023-01-09T13:01:04;5.97;;;3.20;;
9108;SDS011;4590;51.462;6.692;2023-01-09T13:03:42;4.90;;;2.10;;
9108;SDS011;4590;51.462;6.692;2023-01-09T13:06:14;4.35;;;1.52;;
9108;SDS011;4590;51.462;6.692;2023-01-09T13:08:44;4.90;;;2.63;;
9108;SDS011;4590;51.462;6.692;2023-01-09T13:11:19;3.85;;;1.83;;
9108;SDS011;4590;51.462;6.692;2023-01-09T13:13:56;4.53;;;2.35;;
9108;SDS011;4590;51.462;6.692;2023-01-09T13:16:27;2.95;;;1.55;;
9108;SDS011;4590;51.462;6.692;2023-01-09T13:19:10;6.55;;;1.75;;
9108;SDS011;4590;51.462;6.692;2023-01-09T13:21:42;6.22;;;2.58;;
9108;SDS011;4590;51.462;6.692;2023-01-09T13:26:52;3.88;;;2.05;;
9108;SDS011;4590;51.462;6.692;2023-01-09T13:29:25;5.57;;;2.58;;
9108;SDS011;4590;51.462;6.692;2023-01-09T13:34:43;4.95;;;2.80;;
9108;SDS011;4590;51.462;6.692;2023-01-09T13:37:19;11.15;;;5.22;;
9108;SDS011;4590;51.462;6.692;2023-01-09T13:42:43;11.88;;;6.38;;
9108;SDS011;4590;51.462;6.692;2023-01-09T13:45:21;15.90;;;9.55;;
9108;SDS011;4590;51.462;6.692;2023-01-09T13:48:15;18.73;;;10.45;;
9108;SDS011;4590;51.462;6.692;2023-01-09T13:50:41;14.82;;;8.18;;
9108;SDS011;4590;51.462;6.692;2023-01-09T14:01:02;20.77;;;14.73;;
9108;SDS011;4590;51.462;6.692;2023-01-09T14:03:34;20.20;;;14.02;;
9108;SDS011;4590;51.462;6.692;2023-01-09T14:06:02;17.98;;;11.77;;
9108;SDS011;4590;51.462;6.692;2023-01-09T14:08:32;10.98;;;5.60;;
9108;SDS011;4590;51.462;6.692;2023-01-09T14:10:59;7.82;;;4.03;;
9108;SDS011;4590;51.462;6.692;2023-01-09T14:13:32;7.28;;;2.72;;
9108;SDS011;4590;51.462;6.692;2023-01-09T14:18:34;9.77;;;4.22;;
9108;SDS011;4590;51.462;6.692;2023-01-09T14:21:03;9.63;;;3.10;;
9108;SDS011;4590;51.462;6.692;2023-01-09T14:23:35;11.30;;;4.07;;
9108;SDS011;4590;51.462;6.692;2023-01-09T14:26:04;7.88;;;3.15;;
9108;SDS011;4590;51.462;6.692;2023-01-09T14:28:39;6.43;;;2.60;;
9108;SDS011;4590;51.462;6.692;2023-01-09T14:31:05;4.20;;;1.47;;
9108;SDS011;4590;51.462;6.692;2023-01-09T14:33:31;5.70;;;2.10;;
9108;SDS011;4590;51.462;6.692;2023-01-09T14:36:16;4.53;;;1.90;;
9108;SDS011;4590;51.462;6.692;2023-01-09T14:38:58;4.10;;;2.13;;
9108;SDS011;4590;51.462;6.692;2023-01-09T14:44:31;4.97;;;1.60;;
9108;SDS011;4590;51.462;6.692;2023-01-09T14:50:00;4.38;;;1.35;;
9108;SDS011;4590;51.462;6.692;2023-01-09T14:52:34;7.47;;;1.75;;
9108;SDS011;4590;51.462;6.692;2023-01-09T14:55:04;3.75;;;1.30;;
9108;SDS011;4590;51.462;6.692;2023-01-09T14:57:39;4.40;;;1.33;;
9108;SDS011;4590;51.462;6.692;2023-01-09T15:00:11;5.90;;;1.33;;
9108;SDS011;4590;51.462;6.692;2023-01-09T15:02:39;6.18;;;1.67;;
9108;SDS011;4590;51.462;6.692;2023-01-09T15:05:06;5.28;;;2.35;;
9108;SDS011;4590;51.462;6.692;2023-01-09T15:07:38;3.65;;;2.15;;
9108;SDS011;4590;51.462;6.692;2023-01-09T15:10:30;4.45;;;2.33;;
9108;SDS011;4590;51.462;6.692;2023-01-09T15:13:00;4.70;;;2.30;;
9108;SDS011;4590;51.462;6.692;2023-01-09T15:15:29;11.30;;;6.80;;
9108;SDS011;4590;51.462;6.692;2023-01-09T15:17:59;12.43;;;6.07;;
9108;SDS011;4590;51.462;6.692;2023-01-09T15:20:27;6.05;;;3.50;;
9108;SDS011;4590;51.462;6.692;2023-01-09T15:22:55;10.75;;;5.65;;
9108;SDS011;4590;51.462;6.692;2023-01-09T15:25:26;6.68;;;3.30;;
9108;SDS011;4590;51.462;6.692;2023-01-09T15:27:54;9.25;;;5.38;;
9108;SDS011;4590;51.462;6.692;2023-01-09T15:30:29;6.72;;;4.03;;
9108;SDS011;4590;51.462;6.692;2023-01-09T15:33:03;6.25;;;3.22;;
9108;SDS011;4590;51.462;6.692;2023-01-09T15:35:34;4.78;;;2.78;;
9108;SDS011;4590;51.462;6.692;2023-01-09T15:38:00;5.20;;;2.85;;
9108;SDS011;4590;51.462;6.692;2023-01-09T15:40:27;7.53;;;3.20;;
9108;SDS011;4590;51.462;6.692;2023-01-09T15:42:57;6.15;;;3.25;;
9108;SDS011;4590;51.462;6.692;2023-01-09T15:45:25;7.63;;;3.92;;
9108;SDS011;4590;51.462;6.692;2023-01-09T15:47:53;5.22;;;3.28;;
9108;SDS011;4590;51.462;6.692;2023-01-09T15:50:37;4.88;;;2.60;;
9108;SDS011;4590;51.462;6.692;2023-01-09T15:53:03;4.73;;;2.33;;
9108;SDS011;4590;51.462;6.692;2023-01-09T15:58:01;6.57;;;3.30;;
9108;SDS011;4590;51.462;6.692;2023-01-09T16:03:08;4.78;;;3.25;;
9108;SDS011;4590;51.462;6.692;2023-01-09T16:05:41;5.32;;;3.42;;
9108;SDS011;4590;51.462;6.692;2023-01-09T16:08:18;5.90;;;2.97;;
9108;SDS011;4590;51.462;6.692;2023-01-09T16:10:53;6.18;;;3.00;;
9108;SDS011;4590;51.462;6.692;2023-01-09T16:13:22;5.72;;;2.67;;
9108;SDS011;4590;51.462;6.692;2023-01-09T16:15:50;7.32;;;3.20;;
9108;SDS011;4590;51.462;6.692;2023-01-09T16:18:18;6.80;;;3.00;;
9108;SDS011;4590;51.462;6.692;2023-01-09T16:20:46;6.70;;;2.90;;
9108;SDS011;4590;51.462;6.692;2023-01-09T16:23:19;6.65;;;2.40;;
9108;SDS011;4590;51.462;6.692;2023-01-09T16:25:47;5.45;;;2.92;;
9108;SDS011;4590;51.462;6.692;2023-01-09T16:30:54;5.50;;;2.90;;
9108;SDS011;4590;51.462;6.692;2023-01-09T16:33:20;6.60;;;2.80;;
9108;SDS011;4590;51.462;6.692;2023-01-09T16:35:48;5.78;;;2.10;;
9108;SDS011;4590;51.462;6.692;2023-01-09T16:38:15;5.95;;;2.40;;
9108;SDS011;4590;51.462;6.692;2023-01-09T16:41:15;6.32;;;2.67;;
9108;SDS011;4590;51.462;6.692;2023-01-09T16:43:58;9.90;;;4.15;;
9108;SDS011;4590;51.462;6.692;2023-01-09T16:46:23;7.70;;;3.50;;
9108;SDS011;4590;51.462;6.692;2023-01-09T16:48:49;8.20;;;4.03;;
9108;SDS011;4590;51.462;6.692;2023-01-09T16:51:15;7.37;;;4.03;;
9108;SDS011;4590;51.462;6.692;2023-01-09T16:53:43;7.70;;;4.15;;
9108;SDS011;4590;51.462;6.692;2023-01-09T16:56:18;6.10;;;3.20;;
9108;SDS011;4590;51.462;6.692;2023-01-09T16:58:48;5.75;;;2.63;;
9108;SDS011;4590;51.462;6.692;2023-01-09T17:01:14;4.90;;;2.20;;
9108;SDS011;4590;51.462;6.692;2023-01-09T17:03:40;4.88;;;2.33;;
9108;SDS011;4590;51.462;6.692;2023-01-09T17:06:06;5.95;;;2.83;;
9108;SDS011;4590;51.462;6.692;2023-01-09T17:08:53;6.50;;;3.47;;
9108;SDS011;4590;51.462;6.692;2023-01-09T17:11:22;5.97;;;3.00;;
9108;SDS011;4590;51.462;6.692;2023-01-09T17:13:54;5.93;;;3.17;;
9108;SDS011;4590;51.462;6.692;2023-01-09T17:16:19;6.67;;;3.67;;
9108;SDS011;4590;51.462;6.692;2023-01-09T17:18:45;5.80;;;3.50;;
9108;SDS011;4590;51.462;6.692;2023-01-09T17:21:20;4.70;;;2.80;;
9108;SDS011;4590;51.462;6.692;2023-01-09T17:23:47;7.35;;;2.90;;
9108;SDS011;4590;51.462;6.692;2023-01-09T17:26:32;6.05;;;4.20;;
9108;SDS011;4590;51.462;6.692;2023-01-09T17:29:18;6.97;;;4.50;;
9108;SDS011;4590;51.462;6.692;2023-01-09T17:31:44;8.23;;;4.03;;